sensor_id;sensor_type;location;lat;lon;timestamp;P1;durP1;ratioP1;P2;durP2;ratioP2
70757;SDS011;59316;52.964;7.102;2023-12-22T00:01:01;7.78;;;1.50;;
70757;SDS011;59316;52.964;7.102;2023-12-22T00:06:23;11.52;;;1.75;;
70757;SDS011;59316;52.964;7.102;2023-12-22T00:11:45;10.13;;;1.77;;
70757;SDS011;59316;52.964;7.102;2023-12-22T00:17:06;17.85;;;2.00;;
70757;SDS011;59316;52.964;7.102;2023-12-22T00:22:28;9.98;;;2.08;;
70757;SDS011;59316;52.964;7.102;2023-12-22T00:27:50;11.55;;;2.20;;
70757;SDS011;59316;52.964;7.102;2023-12-22T00:33:11;16.92;;;2.45;;
70757;SDS011;59316;52.964;7.102;2023-12-22T00:38:33;21.13;;;3.13;;
70757;SDS011;59316;52.964;7.102;2023-12-22T00:43:54;14.75;;;3.30;;
70757;SDS011;59316;52.964;7.102;2023-12-22T00:49:15;17.50;;;2.25;;
70757;SDS011;59316;52.964;7.102;2023-12-22T00:54:37;10.32;;;1.48;;
70757;SDS011;59316;52.964;7.102;2023-12-22T00:59:58;14.60;;;2.30;;
70757;SDS011;59316;52.964;7.102;2023-12-22T01:05:20;18.02;;;2.50;;
70757;SDS011;59316;52.964;7.102;2023-12-22T01:10:41;4.93;;;1.15;;
70757;SDS011;59316;52.964;7.102;2023-12-22T01:16:03;7.53;;;1.48;;
70757;SDS011;59316;52.964;7.102;2023-12-22T01:21:25;15.20;;;1.83;;
70757;SDS011;59316;52.964;7.102;2023-12-22T01:26:46;8.50;;;1.50;;
70757;SDS011;59316;52.964;7.102;2023-12-22T01:32:07;9.25;;;1.20;;
70757;SDS011;59316;52.964;7.102;2023-12-22T01:37:28;11.25;;;1.90;;
70757;SDS011;59316;52.964;7.102;2023-12-22T01:42:50;12.70;;;2.17;;
70757;SDS011;59316;52.964;7.102;2023-12-22T01:48:12;12.80;;;1.67;;
70757;SDS011;59316;52.964;7.102;2023-12-22T01:53:33;16.70;;;2.70;;
70757;SDS011;59316;52.964;7.102;2023-12-22T01:59:00;18.35;;;2.85;;
70757;SDS011;59316;52.964;7.102;2023-12-22T02:04:22;15.50;;;2.10;;
70757;SDS011;59316;52.964;7.102;2023-12-22T02:09:45;26.75;;;3.25;;
70757;SDS011;59316;52.964;7.102;2023-12-22T02:15:06;15.48;;;2.58;;
70757;SDS011;59316;52.964;7.102;2023-12-22T02:20:28;10.02;;;1.58;;
70757;SDS011;59316;52.964;7.102;2023-12-22T02:25:50;5.28;;;1.27;;
70757;SDS011;59316;52.964;7.102;2023-12-22T02:31:37;9.30;;;1.70;;
70757;SDS011;59316;52.964;7.102;2023-12-22T02:37:07;19.52;;;2.67;;
70757;SDS011;59316;52.964;7.102;2023-12-22T02:42:30;9.80;;;2.22;;
70757;SDS011;59316;52.964;7.102;2023-12-22T02:47:53;13.27;;;2.20;;
70757;SDS011;59316;52.964;7.102;2023-12-22T02:53:14;19.98;;;3.35;;
70757;SDS011;59316;52.964;7.102;2023-12-22T02:58:35;18.15;;;2.10;;
70757;SDS011;59316;52.964;7.102;2023-12-22T03:03:57;22.40;;;2.65;;
70757;SDS011;59316;52.964;7.102;2023-12-22T03:09:19;23.05;;;2.00;;
70757;SDS011;59316;52.964;7.102;2023-12-22T03:14:40;13.40;;;2.10;;
70757;SDS011;59316;52.964;7.102;2023-12-22T03:20:01;14.25;;;2.17;;
70757;SDS011;59316;52.964;7.102;2023-12-22T03:25:23;15.38;;;2.08;;
70757;SDS011;59316;52.964;7.102;2023-12-22T03:30:44;18.38;;;2.80;;
70757;SDS011;59316;52.964;7.102;2023-12-22T03:36:06;11.40;;;1.77;;
70757;SDS011;59316;52.964;7.102;2023-12-22T03:41:28;13.60;;;1.98;;
70757;SDS011;59316;52.964;7.102;2023-12-22T03:46:49;8.23;;;1.77;;
70757;SDS011;59316;52.964;7.102;2023-12-22T03:52:11;11.15;;;1.40;;
70757;SDS011;59316;52.964;7.102;2023-12-22T03:57:32;8.65;;;1.25;;
70757;SDS011;59316;52.964;7.102;2023-12-22T04:02:53;12.05;;;2.15;;
70757;SDS011;59316;52.964;7.102;2023-12-22T04:08:18;10.63;;;1.88;;
70757;SDS011;59316;52.964;7.102;2023-12-22T04:13:39;6.03;;;1.50;;
70757;SDS011;59316;52.964;7.102;2023-12-22T04:19:00;7.20;;;1.38;;
70757;SDS011;59316;52.964;7.102;2023-12-22T04:24:22;12.77;;;1.52;;
70757;SDS011;59316;52.964;7.102;2023-12-22T04:29:43;9.35;;;1.35;;
70757;SDS011;59316;52.964;7.102;2023-12-22T04:35:04;12.20;;;2.03;;
70757;SDS011;59316;52.964;7.102;2023-12-22T04:40:26;23.92;;;2.45;;
70757;SDS011;59316;52.964;7.102;2023-12-22T04:45:47;13.40;;;1.75;;
70757;SDS011;59316;52.964;7.102;2023-12-22T04:51:09;15.27;;;1.90;;
70757;SDS011;59316;52.964;7.102;2023-12-22T04:56:30;14.57;;;1.95;;
70757;SDS011;59316;52.964;7.102;2023-12-22T05:01:51;13.88;;;2.00;;
70757;SDS011;59316;52.964;7.102;2023-12-22T05:07:13;24.73;;;2.83;;
70757;SDS011;59316;52.964;7.102;2023-12-22T05:12:34;14.23;;;2.65;;
70757;SDS011;59316;52.964;7.102;2023-12-22T05:17:55;18.42;;;3.03;;
70757;SDS011;59316;52.964;7.102;2023-12-22T05:23:17;22.80;;;2.80;;
70757;SDS011;59316;52.964;7.102;2023-12-22T05:28:38;18.00;;;2.40;;
70757;SDS011;59316;52.964;7.102;2023-12-22T05:34:00;15.60;;;2.40;;
70757;SDS011;59316;52.964;7.102;2023-12-22T05:39:21;22.17;;;2.58;;
70757;SDS011;59316;52.964;7.102;2023-12-22T05:44:42;9.98;;;2.10;;
70757;SDS011;59316;52.964;7.102;2023-12-22T05:50:04;18.13;;;3.05;;
70757;SDS011;59316;52.964;7.102;2023-12-22T05:55:26;21.10;;;2.70;;
70757;SDS011;59316;52.964;7.102;2023-12-22T06:00:48;19.05;;;2.33;;
70757;SDS011;59316;52.964;7.102;2023-12-22T06:06:10;21.20;;;2.15;;
70757;SDS011;59316;52.964;7.102;2023-12-22T06:11:31;15.15;;;2.67;;
70757;SDS011;59316;52.964;7.102;2023-12-22T06:16:53;17.55;;;2.65;;
70757;SDS011;59316;52.964;7.102;2023-12-22T06:22:15;16.15;;;2.42;;
70757;SDS011;59316;52.964;7.102;2023-12-22T06:27:36;11.07;;;1.92;;
70757;SDS011;59316;52.964;7.102;2023-12-22T06:32:58;17.80;;;2.55;;
70757;SDS011;59316;52.964;7.102;2023-12-22T06:38:19;11.68;;;2.05;;
70757;SDS011;59316;52.964;7.102;2023-12-22T06:43:41;16.20;;;2.55;;
70757;SDS011;59316;52.964;7.102;2023-12-22T06:49:02;15.85;;;2.20;;
70757;SDS011;59316;52.964;7.102;2023-12-22T06:59:48;21.83;;;2.35;;
70757;SDS011;59316;52.964;7.102;2023-12-22T07:10:40;10.45;;;1.40;;
70757;SDS011;59316;52.964;7.102;2023-12-22T07:16:01;6.22;;;1.73;;
70757;SDS011;59316;52.964;7.102;2023-12-22T07:21:25;9.95;;;1.75;;
70757;SDS011;59316;52.964;7.102;2023-12-22T07:26:53;13.60;;;1.63;;
70757;SDS011;59316;52.964;7.102;2023-12-22T07:32:15;17.98;;;2.60;;
70757;SDS011;59316;52.964;7.102;2023-12-22T07:37:37;12.02;;;1.90;;
70757;SDS011;59316;52.964;7.102;2023-12-22T07:42:59;11.05;;;2.17;;
70757;SDS011;59316;52.964;7.102;2023-12-22T07:48:21;7.47;;;1.83;;
70757;SDS011;59316;52.964;7.102;2023-12-22T07:53:44;16.05;;;2.70;;
70757;SDS011;59316;52.964;7.102;2023-12-22T07:59:05;17.73;;;2.00;;
70757;SDS011;59316;52.964;7.102;2023-12-22T08:04:46;7.53;;;1.95;;
70757;SDS011;59316;52.964;7.102;2023-12-22T08:10:07;14.90;;;2.53;;
70757;SDS011;59316;52.964;7.102;2023-12-22T08:15:29;14.27;;;2.13;;
70757;SDS011;59316;52.964;7.102;2023-12-22T08:20:56;13.18;;;2.08;;
70757;SDS011;59316;52.964;7.102;2023-12-22T08:26:19;11.27;;;2.10;;
70757;SDS011;59316;52.964;7.102;2023-12-22T08:31:41;13.68;;;1.92;;
70757;SDS011;59316;52.964;7.102;2023-12-22T08:37:02;10.95;;;1.30;;
70757;SDS011;59316;52.964;7.102;2023-12-22T08:42:24;14.93;;;2.42;;
70757;SDS011;59316;52.964;7.102;2023-12-22T08:47:47;13.13;;;1.80;;
70757;SDS011;59316;52.964;7.102;2023-12-22T08:53:09;6.38;;;1.45;;
70757;SDS011;59316;52.964;7.102;2023-12-22T08:58:30;13.57;;;2.10;;
70757;SDS011;59316;52.964;7.102;2023-12-22T09:03:52;12.27;;;1.73;;
70757;SDS011;59316;52.964;7.102;2023-12-22T09:09:13;10.13;;;1.60;;
70757;SDS011;59316;52.964;7.102;2023-12-22T09:14:34;10.02;;;1.60;;
70757;SDS011;59316;52.964;7.102;2023-12-22T09:19:56;8.13;;;1.45;;
70757;SDS011;59316;52.964;7.102;2023-12-22T09:25:17;9.95;;;1.88;;
70757;SDS011;59316;52.964;7.102;2023-12-22T09:30:39;8.55;;;1.73;;
70757;SDS011;59316;52.964;7.102;2023-12-22T09:36:00;11.85;;;1.67;;
70757;SDS011;59316;52.964;7.102;2023-12-22T09:41:22;8.25;;;1.27;;
70757;SDS011;59316;52.964;7.102;2023-12-22T09:46:43;9.85;;;1.70;;
70757;SDS011;59316;52.964;7.102;2023-12-22T09:52:06;7.20;;;1.30;;
70757;SDS011;59316;52.964;7.102;2023-12-22T09:57:28;7.93;;;1.83;;
70757;SDS011;59316;52.964;7.102;2023-12-22T10:02:51;4.82;;;1.55;;
70757;SDS011;59316;52.964;7.102;2023-12-22T10:08:13;7.30;;;1.10;;
70757;SDS011;59316;52.964;7.102;2023-12-22T10:13:36;8.15;;;1.17;;
70757;SDS011;59316;52.964;7.102;2023-12-22T10:18:59;4.78;;;1.25;;
70757;SDS011;59316;52.964;7.102;2023-12-22T10:30:05;7.90;;;1.35;;
70757;SDS011;59316;52.964;7.102;2023-12-22T10:35:28;10.02;;;1.52;;
70757;SDS011;59316;52.964;7.102;2023-12-22T10:40:50;6.65;;;1.40;;
70757;SDS011;59316;52.964;7.102;2023-12-22T10:46:11;6.95;;;1.23;;
70757;SDS011;59316;52.964;7.102;2023-12-22T10:51:33;8.20;;;1.42;;
70757;SDS011;59316;52.964;7.102;2023-12-22T10:56:57;8.68;;;1.42;;
70757;SDS011;59316;52.964;7.102;2023-12-22T11:02:20;11.68;;;1.42;;
70757;SDS011;59316;52.964;7.102;2023-12-22T11:07:41;5.75;;;1.48;;
70757;SDS011;59316;52.964;7.102;2023-12-22T11:13:10;5.85;;;1.20;;
70757;SDS011;59316;52.964;7.102;2023-12-22T11:18:33;9.73;;;1.30;;
70757;SDS011;59316;52.964;7.102;2023-12-22T11:23:56;10.00;;;1.50;;
70757;SDS011;59316;52.964;7.102;2023-12-22T11:29:18;5.53;;;1.40;;
70757;SDS011;59316;52.964;7.102;2023-12-22T11:34:42;10.40;;;1.40;;
70757;SDS011;59316;52.964;7.102;2023-12-22T11:40:04;10.20;;;1.75;;
70757;SDS011;59316;52.964;7.102;2023-12-22T11:45:29;8.15;;;1.75;;
70757;SDS011;59316;52.964;7.102;2023-12-22T11:50:52;6.35;;;1.15;;
70757;SDS011;59316;52.964;7.102;2023-12-22T11:56:13;11.88;;;1.58;;
70757;SDS011;59316;52.964;7.102;2023-12-22T12:01:35;9.82;;;1.63;;
70757;SDS011;59316;52.964;7.102;2023-12-22T12:06:59;8.43;;;1.35;;
70757;SDS011;59316;52.964;7.102;2023-12-22T12:12:20;8.77;;;1.77;;
70757;SDS011;59316;52.964;7.102;2023-12-22T12:17:44;11.15;;;1.50;;
70757;SDS011;59316;52.964;7.102;2023-12-22T12:23:05;12.77;;;2.28;;
70757;SDS011;59316;52.964;7.102;2023-12-22T12:28:31;7.47;;;1.30;;
70757;SDS011;59316;52.964;7.102;2023-12-22T12:33:54;8.45;;;1.50;;
70757;SDS011;59316;52.964;7.102;2023-12-22T12:39:17;14.25;;;1.75;;
70757;SDS011;59316;52.964;7.102;2023-12-22T12:44:43;9.25;;;2.63;;
70757;SDS011;59316;52.964;7.102;2023-12-22T12:50:06;11.48;;;1.70;;
70757;SDS011;59316;52.964;7.102;2023-12-22T12:55:28;7.55;;;1.30;;
70757;SDS011;59316;52.964;7.102;2023-12-22T13:00:50;11.00;;;1.42;;
70757;SDS011;59316;52.964;7.102;2023-12-22T13:06:11;9.40;;;1.58;;
70757;SDS011;59316;52.964;7.102;2023-12-22T13:11:33;8.20;;;1.23;;
70757;SDS011;59316;52.964;7.102;2023-12-22T13:22:19;15.38;;;1.48;;
70757;SDS011;59316;52.964;7.102;2023-12-22T13:27:44;16.73;;;1.90;;
70757;SDS011;59316;52.964;7.102;2023-12-22T13:33:10;7.65;;;1.38;;
70757;SDS011;59316;52.964;7.102;2023-12-22T13:38:32;6.18;;;1.50;;
70757;SDS011;59316;52.964;7.102;2023-12-22T13:43:54;4.50;;;1.20;;
70757;SDS011;59316;52.964;7.102;2023-12-22T13:49:15;7.03;;;1.30;;
70757;SDS011;59316;52.964;7.102;2023-12-22T13:54:37;5.20;;;1.20;;
70757;SDS011;59316;52.964;7.102;2023-12-22T13:59:58;10.25;;;1.63;;
70757;SDS011;59316;52.964;7.102;2023-12-22T14:05:20;6.25;;;1.30;;
70757;SDS011;59316;52.964;7.102;2023-12-22T14:10:48;4.43;;;1.02;;
70757;SDS011;59316;52.964;7.102;2023-12-22T14:16:10;4.20;;;0.63;;
70757;SDS011;59316;52.964;7.102;2023-12-22T14:21:31;3.03;;;0.57;;
70757;SDS011;59316;52.964;7.102;2023-12-22T14:26:53;6.57;;;0.85;;
70757;SDS011;59316;52.964;7.102;2023-12-22T14:32:15;5.38;;;0.85;;
70757;SDS011;59316;52.964;7.102;2023-12-22T14:37:36;7.70;;;1.00;;
70757;SDS011;59316;52.964;7.102;2023-12-22T14:42:58;4.07;;;1.38;;
70757;SDS011;59316;52.964;7.102;2023-12-22T14:48:19;8.20;;;1.10;;
70757;SDS011;59316;52.964;7.102;2023-12-22T14:53:41;4.72;;;1.25;;
70757;SDS011;59316;52.964;7.102;2023-12-22T14:59:02;8.27;;;1.30;;
70757;SDS011;59316;52.964;7.102;2023-12-22T15:04:24;7.88;;;0.93;;
70757;SDS011;59316;52.964;7.102;2023-12-22T15:09:46;7.00;;;1.40;;
70757;SDS011;59316;52.964;7.102;2023-12-22T15:15:07;7.50;;;1.08;;
70757;SDS011;59316;52.964;7.102;2023-12-22T15:20:28;7.63;;;0.90;;
70757;SDS011;59316;52.964;7.102;2023-12-22T15:25:50;6.75;;;1.30;;
70757;SDS011;59316;52.964;7.102;2023-12-22T15:31:12;8.25;;;1.70;;
70757;SDS011;59316;52.964;7.102;2023-12-22T15:36:33;6.22;;;1.15;;
70757;SDS011;59316;52.964;7.102;2023-12-22T15:41:55;4.72;;;1.00;;
70757;SDS011;59316;52.964;7.102;2023-12-22T15:47:16;4.65;;;0.68;;
70757;SDS011;59316;52.964;7.102;2023-12-22T15:52:38;2.75;;;0.60;;
70757;SDS011;59316;52.964;7.102;2023-12-22T15:57:59;2.70;;;0.70;;
70757;SDS011;59316;52.964;7.102;2023-12-22T16:03:20;7.70;;;1.17;;
70757;SDS011;59316;52.964;7.102;2023-12-22T16:08:42;3.40;;;0.68;;
70757;SDS011;59316;52.964;7.102;2023-12-22T16:14:03;2.90;;;0.80;;
70757;SDS011;59316;52.964;7.102;2023-12-22T16:19:25;5.72;;;0.90;;
70757;SDS011;59316;52.964;7.102;2023-12-22T16:24:46;5.53;;;0.70;;
70757;SDS011;59316;52.964;7.102;2023-12-22T16:30:07;3.72;;;0.95;;
70757;SDS011;59316;52.964;7.102;2023-12-22T16:35:29;4.70;;;0.90;;
70757;SDS011;59316;52.964;7.102;2023-12-22T16:40:51;3.55;;;0.80;;
70757;SDS011;59316;52.964;7.102;2023-12-22T16:46:13;4.07;;;1.05;;
70757;SDS011;59316;52.964;7.102;2023-12-22T16:51:34;6.25;;;1.05;;
70757;SDS011;59316;52.964;7.102;2023-12-22T16:56:55;7.95;;;0.90;;
70757;SDS011;59316;52.964;7.102;2023-12-22T17:02:17;10.10;;;1.17;;
70757;SDS011;59316;52.964;7.102;2023-12-22T17:07:52;7.70;;;1.13;;
70757;SDS011;59316;52.964;7.102;2023-12-22T17:13:14;8.98;;;1.10;;
70757;SDS011;59316;52.964;7.102;2023-12-22T17:18:35;5.15;;;1.02;;
70757;SDS011;59316;52.964;7.102;2023-12-22T17:23:56;5.78;;;0.93;;
70757;SDS011;59316;52.964;7.102;2023-12-22T17:29:17;8.23;;;1.27;;
70757;SDS011;59316;52.964;7.102;2023-12-22T17:34:39;7.25;;;1.33;;
70757;SDS011;59316;52.964;7.102;2023-12-22T17:40:00;6.35;;;1.17;;
70757;SDS011;59316;52.964;7.102;2023-12-22T17:45:21;6.30;;;1.17;;
70757;SDS011;59316;52.964;7.102;2023-12-22T17:50:43;11.15;;;1.38;;
70757;SDS011;59316;52.964;7.102;2023-12-22T17:56:04;4.40;;;1.15;;
70757;SDS011;59316;52.964;7.102;2023-12-22T18:01:26;8.45;;;1.02;;
70757;SDS011;59316;52.964;7.102;2023-12-22T18:06:47;3.28;;;0.95;;
70757;SDS011;59316;52.964;7.102;2023-12-22T18:12:09;7.22;;;0.93;;
70757;SDS011;59316;52.964;7.102;2023-12-22T18:17:30;6.72;;;0.75;;
70757;SDS011;59316;52.964;7.102;2023-12-22T18:22:52;3.97;;;0.68;;
70757;SDS011;59316;52.964;7.102;2023-12-22T18:28:13;10.23;;;0.93;;
70757;SDS011;59316;52.964;7.102;2023-12-22T18:33:34;3.30;;;0.65;;
70757;SDS011;59316;52.964;7.102;2023-12-22T18:38:56;5.78;;;0.60;;
70757;SDS011;59316;52.964;7.102;2023-12-22T18:44:17;3.85;;;0.60;;
70757;SDS011;59316;52.964;7.102;2023-12-22T18:49:39;6.10;;;0.90;;
70757;SDS011;59316;52.964;7.102;2023-12-22T18:55:00;3.40;;;0.68;;
70757;SDS011;59316;52.964;7.102;2023-12-22T19:00:22;4.72;;;1.08;;
70757;SDS011;59316;52.964;7.102;2023-12-22T19:05:43;7.45;;;0.80;;
70757;SDS011;59316;52.964;7.102;2023-12-22T19:11:05;4.10;;;0.68;;
70757;SDS011;59316;52.964;7.102;2023-12-22T19:16:26;7.20;;;1.00;;
70757;SDS011;59316;52.964;7.102;2023-12-22T19:21:48;6.97;;;1.48;;
70757;SDS011;59316;52.964;7.102;2023-12-22T19:27:09;7.32;;;0.80;;
70757;SDS011;59316;52.964;7.102;2023-12-22T19:32:30;8.50;;;1.70;;
70757;SDS011;59316;52.964;7.102;2023-12-22T19:37:52;6.63;;;1.55;;
70757;SDS011;59316;52.964;7.102;2023-12-22T19:43:14;3.65;;;0.60;;
70757;SDS011;59316;52.964;7.102;2023-12-22T19:48:36;5.05;;;1.40;;
70757;SDS011;59316;52.964;7.102;2023-12-22T19:53:57;3.85;;;0.93;;
70757;SDS011;59316;52.964;7.102;2023-12-22T19:59:19;5.18;;;1.00;;
70757;SDS011;59316;52.964;7.102;2023-12-22T20:04:40;2.17;;;0.40;;
70757;SDS011;59316;52.964;7.102;2023-12-22T20:10:01;4.07;;;1.48;;
70757;SDS011;59316;52.964;7.102;2023-12-22T20:15:23;8.50;;;0.98;;
70757;SDS011;59316;52.964;7.102;2023-12-22T20:20:45;8.40;;;1.20;;
70757;SDS011;59316;52.964;7.102;2023-12-22T20:26:06;3.13;;;0.75;;
70757;SDS011;59316;52.964;7.102;2023-12-22T20:31:28;3.65;;;0.82;;
70757;SDS011;59316;52.964;7.102;2023-12-22T20:36:50;8.05;;;1.00;;
70757;SDS011;59316;52.964;7.102;2023-12-22T20:42:12;3.55;;;0.60;;
70757;SDS011;59316;52.964;7.102;2023-12-22T20:47:35;3.45;;;0.95;;
70757;SDS011;59316;52.964;7.102;2023-12-22T20:52:57;8.73;;;0.80;;
70757;SDS011;59316;52.964;7.102;2023-12-22T20:58:18;6.03;;;0.60;;
70757;SDS011;59316;52.964;7.102;2023-12-22T21:03:40;7.93;;;0.70;;
70757;SDS011;59316;52.964;7.102;2023-12-22T21:09:02;1.77;;;0.57;;
70757;SDS011;59316;52.964;7.102;2023-12-22T21:14:23;5.90;;;0.90;;
70757;SDS011;59316;52.964;7.102;2023-12-22T21:19:45;6.55;;;0.82;;
70757;SDS011;59316;52.964;7.102;2023-12-22T21:25:12;2.60;;;0.60;;
70757;SDS011;59316;52.964;7.102;2023-12-22T21:30:33;4.57;;;0.85;;
70757;SDS011;59316;52.964;7.102;2023-12-22T21:35:55;4.45;;;1.00;;
70757;SDS011;59316;52.964;7.102;2023-12-22T21:41:17;5.80;;;0.90;;
70757;SDS011;59316;52.964;7.102;2023-12-22T21:46:42;9.73;;;0.88;;
70757;SDS011;59316;52.964;7.102;2023-12-22T21:52:05;9.10;;;1.27;;
70757;SDS011;59316;52.964;7.102;2023-12-22T21:57:27;9.30;;;1.35;;
70757;SDS011;59316;52.964;7.102;2023-12-22T22:02:48;7.35;;;1.48;;
70757;SDS011;59316;52.964;7.102;2023-12-22T22:08:10;6.75;;;0.90;;
70757;SDS011;59316;52.964;7.102;2023-12-22T22:13:31;9.63;;;1.45;;
70757;SDS011;59316;52.964;7.102;2023-12-22T22:18:53;9.32;;;1.30;;
70757;SDS011;59316;52.964;7.102;2023-12-22T22:24:14;2.83;;;0.77;;
70757;SDS011;59316;52.964;7.102;2023-12-22T22:29:35;6.80;;;0.90;;
70757;SDS011;59316;52.964;7.102;2023-12-22T22:34:57;12.00;;;1.42;;
70757;SDS011;59316;52.964;7.102;2023-12-22T22:40:18;8.82;;;1.00;;
70757;SDS011;59316;52.964;7.102;2023-12-22T22:45:39;9.80;;;1.27;;
70757;SDS011;59316;52.964;7.102;2023-12-22T22:51:01;16.08;;;1.52;;
70757;SDS011;59316;52.964;7.102;2023-12-22T22:56:22;11.38;;;1.45;;
70757;SDS011;59316;52.964;7.102;2023-12-22T23:01:47;12.95;;;1.95;;
70757;SDS011;59316;52.964;7.102;2023-12-22T23:07:08;14.60;;;2.78;;
70757;SDS011;59316;52.964;7.102;2023-12-22T23:12:29;20.45;;;1.95;;
70757;SDS011;59316;52.964;7.102;2023-12-22T23:17:51;12.45;;;1.80;;
70757;SDS011;59316;52.964;7.102;2023-12-22T23:23:13;6.55;;;1.30;;
70757;SDS011;59316;52.964;7.102;2023-12-22T23:28:34;10.18;;;2.00;;
70757;SDS011;59316;52.964;7.102;2023-12-22T23:33:56;12.65;;;1.50;;
70757;SDS011;59316;52.964;7.102;2023-12-22T23:39:17;12.50;;;1.63;;
70757;SDS011;59316;52.964;7.102;2023-12-22T23:44:39;7.78;;;1.30;;
70757;SDS011;59316;52.964;7.102;2023-12-22T23:50:00;12.57;;;1.50;;
70757;SDS011;59316;52.964;7.102;2023-12-22T23:55:22;16.27;;;1.85;;
